Time;durP1;ratioP1;P1;durP2;ratioP2;P2;SDS_P1;SDS_P2;PMS_P1;PMS_P2;Temp;Humidity;BMP_temperature;BMP_pressure;BME280_temperature;BME280_humidity;BME280_pressure;Samples;Min_cycle;Max_cycle;Signal;HPM_P1;HPM_P2
2020/12/22 00:00:08;;;;;;;0.20;0.20;;;11.60;99.90;;;;;;5077817;28;20025;-62
2020/12/22 00:02:44;;;;;;;0.50;0.20;;;11.80;99.90;;;;;;5078369;28;20558;-61
2020/12/22 00:05:10;;;;;;;1.38;0.32;;;11.90;99.90;;;;;;5077857;28;20399;-61
2020/12/22 00:07:36;;;;;;;0.82;0.10;;;11.90;99.90;;;;;;5075680;28;20043;-60
2020/12/22 00:10:03;;;;;;;1.85;0.20;;;11.80;99.90;;;;;;5078536;28;20020;-61
2020/12/22 00:12:29;;;;;;;0.17;0.17;;;11.80;99.90;;;;;;5077671;28;20510;-60
2020/12/22 00:14:55;;;;;;;0.85;0.20;;;11.80;99.90;;;;;;5075899;28;20024;-61
2020/12/22 00:17:20;;;;;;;0.20;0.20;;;11.80;99.90;;;;;;5076166;28;20082;-60
2020/12/22 00:19:46;;;;;;;0.38;0.20;;;11.80;99.90;;;;;;5076601;28;20036;-60
2020/12/22 00:22:12;;;;;;;0.30;0.28;;;11.90;99.90;;;;;;5078439;28;20044;-61
2020/12/22 00:24:37;;;;;;;1.25;0.40;;;11.90;99.90;;;;;;5076548;28;20067;-60
2020/12/22 00:27:03;;;;;;;0.30;0.20;;;11.90;99.90;;;;;;5078210;28;20631;-61
2020/12/22 00:29:28;;;;;;;1.08;0.28;;;12.00;99.90;;;;;;5078850;28;20093;-60
2020/12/22 00:32:00;;;;;;;0.30;0.10;;;12.00;99.90;;;;;;5075740;28;20035;-60
2020/12/22 00:34:29;;;;;;;0.20;0.20;;;12.10;99.90;;;;;;5078203;28;20139;-62
2020/12/22 00:36:55;;;;;;;0.52;0.20;;;12.00;99.90;;;;;;5081258;28;20102;-62
2020/12/22 00:39:21;;;;;;;0.30;0.20;;;12.20;99.90;;;;;;5078247;28;20486;-62
2020/12/22 00:41:55;;;;;;;0.30;0.30;;;12.20;99.90;;;;;;5074415;28;20024;-62
2020/12/22 00:44:21;;;;;;;0.52;0.20;;;12.20;99.90;;;;;;5081356;28;20086;-62
2020/12/22 00:46:46;;;;;;;0.38;0.20;;;12.20;99.90;;;;;;5088040;28;20032;-62
2020/12/22 00:49:12;;;;;;;0.20;0.20;;;12.20;99.90;;;;;;5068454;28;20036;-62
2020/12/22 00:51:37;;;;;;;0.20;0.20;;;12.20;99.90;;;;;;5068209;28;20024;-62
2020/12/22 00:54:03;;;;;;;2.65;0.38;;;12.20;99.90;;;;;;5068211;28;20031;-62
2020/12/22 00:56:28;;;;;;;1.38;0.30;;;12.20;99.90;;;;;;5088152;28;20507;-62
2020/12/22 00:58:54;;;;;;;0.40;0.30;;;12.20;99.90;;;;;;5088943;28;20490;-62
2020/12/22 01:01:20;;;;;;;0.70;0.20;;;12.20;99.90;;;;;;5086984;28;20040;-63
2020/12/22 01:03:46;;;;;;;0.45;0.20;;;12.20;99.90;;;;;;5088381;28;20050;-61
2020/12/22 01:06:12;;;;;;;1.40;0.28;;;12.20;99.90;;;;;;5088753;28;20467;-62
2020/12/22 01:08:37;;;;;;;0.60;0.20;;;12.20;99.90;;;;;;5088151;28;20028;-61
2020/12/22 01:11:03;;;;;;;1.42;0.20;;;12.20;99.90;;;;;;5088602;28;20718;-61
2020/12/22 01:13:29;;;;;;;0.93;0.20;;;12.20;99.90;;;;;;5088895;28;20028;-62
2020/12/22 01:15:54;;;;;;;0.20;0.20;;;12.20;99.90;;;;;;5088349;28;20024;-61
2020/12/22 01:18:20;;;;;;;0.20;0.20;;;12.30;99.90;;;;;;5079602;28;20487;-62
2020/12/22 01:20:48;;;;;;;0.43;0.20;;;12.50;99.90;;;;;;5086284;28;20028;-61
2020/12/22 01:23:14;;;;;;;0.15;0.15;;;12.60;99.90;;;;;;5083454;28;20104;-62
2020/12/22 01:25:40;;;;;;;0.85;0.20;;;12.60;99.90;;;;;;5088696;28;20028;-62
2020/12/22 01:28:06;;;;;;;1.85;0.30;;;12.70;99.90;;;;;;5089050;28;20028;-62
2020/12/22 01:30:32;;;;;;;0.10;0.10;;;12.70;99.90;;;;;;5088594;28;20039;-62
2020/12/22 01:32:57;;;;;;;0.10;0.10;;;12.70;99.90;;;;;;5087417;28;20047;-61
2020/12/22 01:35:23;;;;;;;0.10;0.10;;;12.80;99.90;;;;;;5088309;28;20028;-62
2020/12/22 01:37:48;;;;;;;0.63;0.15;;;12.70;99.90;;;;;;5089270;28;20020;-62
2020/12/22 01:40:14;;;;;;;0.10;0.10;;;12.70;99.90;;;;;;5092212;28;20479;-62
2020/12/22 01:42:44;;;;;;;0.10;0.10;;;12.80;99.90;;;;;;5092160;28;20024;-62
2020/12/22 01:45:11;;;;;;;0.30;0.20;;;12.80;99.90;;;;;;5083928;28;20032;-62
2020/12/22 01:47:46;;;;;;;0.85;0.22;;;12.80;99.90;;;;;;5076622;28;20468;-62
2020/12/22 01:50:18;;;;;;;0.10;0.10;;;12.80;99.90;;;;;;5071591;28;20056;-62
2020/12/22 01:52:47;;;;;;;0.75;0.20;;;12.90;99.90;;;;;;5071420;28;20070;-62
2020/12/22 01:55:12;;;;;;;0.88;0.20;;;13.00;99.90;;;;;;5071772;28;20079;-62
2020/12/22 01:57:38;;;;;;;0.22;0.20;;;13.00;99.90;;;;;;5071403;28;20056;-62
2020/12/22 02:00:07;;;;;;;0.20;0.20;;;13.00;99.90;;;;;;5071391;28;20391;-62
2020/12/22 02:02:33;;;;;;;0.90;0.13;;;13.00;99.90;;;;;;5080640;28;20124;-62
2020/12/22 02:05:00;;;;;;;0.20;0.20;;;12.90;99.90;;;;;;5087420;28;20047;-62
2020/12/22 02:07:26;;;;;;;0.32;0.20;;;12.90;99.90;;;;;;5091620;28;20039;-62
2020/12/22 02:09:52;;;;;;;0.20;0.20;;;12.90;99.90;;;;;;5091933;28;20028;-62
2020/12/22 02:12:18;;;;;;;0.25;0.25;;;12.90;99.90;;;;;;5087880;28;20025;-62
2020/12/22 02:14:44;;;;;;;0.30;0.30;;;13.00;99.90;;;;;;5070958;28;20028;-62
2020/12/22 02:17:10;;;;;;;0.68;0.20;;;13.00;99.90;;;;;;5071298;28;20028;-62
2020/12/22 02:19:36;;;;;;;3.55;0.30;;;13.00;99.90;;;;;;5071620;28;20425;-62
2020/12/22 02:22:02;;;;;;;5.88;1.45;;;13.00;99.90;;;;;;5071088;28;20495;-62
2020/12/22 02:24:30;;;;;;;0.55;0.15;;;13.00;99.90;;;;;;5070792;28;20040;-62
2020/12/22 02:26:56;;;;;;;0.30;0.30;;;13.00;99.90;;;;;;5076803;28;20122;-62
2020/12/22 02:29:21;;;;;;;2.47;0.30;;;13.00;99.90;;;;;;5071665;28;20108;-62
2020/12/22 02:31:47;;;;;;;0.47;0.17;;;13.00;99.90;;;;;;5071551;28;20040;-64
2020/12/22 02:34:12;;;;;;;0.65;0.25;;;13.00;99.90;;;;;;5091430;28;20119;-63
2020/12/22 02:36:39;;;;;;;0.20;0.20;;;13.10;99.90;;;;;;5090986;28;20428;-62
2020/12/22 02:39:05;;;;;;;0.60;0.20;;;13.10;99.90;;;;;;5086843;28;20021;-62
2020/12/22 02:41:31;;;;;;;0.40;0.30;;;13.00;99.90;;;;;;5070492;28;20036;-62
2020/12/22 02:43:56;;;;;;;0.45;0.20;;;13.10;99.90;;;;;;5070897;28;20038;-62
2020/12/22 02:46:22;;;;;;;2.72;0.40;;;13.10;99.90;;;;;;5069983;28;20391;-62
2020/12/22 02:48:47;;;;;;;1.30;0.40;;;13.20;99.90;;;;;;5071293;28;20021;-62
2020/12/22 02:51:13;;;;;;;0.55;0.40;;;13.20;99.90;;;;;;5070745;28;20099;-62
2020/12/22 02:53:39;;;;;;;2.92;0.45;;;13.10;99.90;;;;;;5084455;28;20036;-62
2020/12/22 02:56:04;;;;;;;1.90;0.30;;;13.20;99.90;;;;;;5090970;28;20035;-62
2020/12/22 02:58:29;;;;;;;6.07;0.68;;;13.30;99.90;;;;;;5090972;28;20024;-62
2020/12/22 03:00:55;;;;;;;2.85;0.60;;;13.40;99.90;;;;;;5087873;28;20028;-61
2020/12/22 03:03:21;;;;;;;2.45;0.40;;;13.60;99.90;;;;;;5090423;28;20020;-60
2020/12/22 03:05:46;;;;;;;1.73;0.60;;;14.00;99.90;;;;;;5083897;28;20403;-62
2020/12/22 03:08:12;;;;;;;0.70;0.40;;;14.00;99.90;;;;;;5070158;28;20024;-62
2020/12/22 03:10:38;;;;;;;2.28;0.45;;;14.00;99.90;;;;;;5069710;28;20591;-62
2020/12/22 03:13:03;;;;;;;1.92;0.60;;;14.00;99.90;;;;;;5073439;28;20453;-62
2020/12/22 03:15:29;;;;;;;1.45;0.40;;;14.10;99.90;;;;;;5088345;28;20035;-62
2020/12/22 03:17:55;;;;;;;2.80;0.40;;;14.20;99.90;;;;;;5076848;28;20086;-63
2020/12/22 03:20:20;;;;;;;1.02;0.30;;;14.20;99.90;;;;;;5070088;28;20115;-64
2020/12/22 03:22:46;;;;;;;1.35;0.50;;;14.30;99.90;;;;;;5072251;28;20025;-62
2020/12/22 03:25:12;;;;;;;2.53;0.50;;;14.30;99.90;;;;;;5090041;28;20028;-63
2020/12/22 03:27:41;;;;;;;1.88;0.40;;;14.30;99.90;;;;;;5090285;28;20035;-62
2020/12/22 03:30:10;;;;;;;1.67;0.47;;;14.30;99.90;;;;;;5090299;28;20027;-61
2020/12/22 03:32:36;;;;;;;2.65;0.75;;;14.30;99.90;;;;;;5089418;28;20115;-61
2020/12/22 03:35:03;;;;;;;2.85;0.75;;;14.30;99.90;;;;;;5088912;28;20032;-63
2020/12/22 03:37:28;;;;;;;2.58;0.70;;;14.30;99.90;;;;;;5076369;28;20609;-63
2020/12/22 03:40:00;;;;;;;4.78;0.70;;;14.20;99.90;;;;;;5069332;28;20021;-63
2020/12/22 03:42:26;;;;;;;2.90;1.75;;;14.20;99.90;;;;;;5069521;28;20032;-62
2020/12/22 03:44:51;;;;;;;2.50;0.70;;;14.30;99.90;;;;;;5068953;28;20379;-63
2020/12/22 03:47:17;;;;;;;4.03;0.70;;;14.40;99.90;;;;;;5078521;28;20145;-62
2020/12/22 03:49:43;;;;;;;2.83;0.60;;;14.40;99.90;;;;;;5089787;28;20024;-63
2020/12/22 03:52:09;;;;;;;2.85;0.60;;;14.50;99.90;;;;;;5087546;28;20025;-63
2020/12/22 03:54:36;;;;;;;1.67;0.30;;;14.40;99.90;;;;;;5089341;28;20036;-62
2020/12/22 03:57:02;;;;;;;1.80;0.40;;;14.50;99.90;;;;;;5089434;28;20028;-63
2020/12/22 03:59:27;;;;;;;1.75;0.60;;;14.50;99.90;;;;;;5089186;28;20052;-63
2020/12/22 04:01:53;;;;;;;1.17;0.40;;;14.70;99.90;;;;;;5087171;28;20403;-63
2020/12/22 04:04:20;;;;;;;2.35;0.43;;;14.70;99.90;;;;;;5069570;28;20097;-62
2020/12/22 04:06:46;;;;;;;0.65;0.20;;;14.70;99.90;;;;;;5075411;28;20051;-62
2020/12/22 04:09:11;;;;;;;0.75;0.32;;;14.80;99.90;;;;;;5089688;28;20024;-63
2020/12/22 04:11:37;;;;;;;1.55;0.30;;;14.70;99.90;;;;;;5089275;28;20505;-63
2020/12/22 04:14:02;;;;;;;1.27;0.60;;;14.90;99.90;;;;;;5088778;28;20067;-63
2020/12/22 04:16:28;;;;;;;3.70;1.75;;;14.90;99.90;;;;;;5086871;28;20062;-63
2020/12/22 04:18:53;;;;;;;3.60;0.40;;;14.80;99.90;;;;;;5089204;28;20028;-63
2020/12/22 04:21:19;;;;;;;1.05;0.45;;;14.90;99.90;;;;;;5089013;28;20077;-62
2020/12/22 04:23:44;;;;;;;1.73;0.30;;;14.90;99.90;;;;;;5089507;28;20031;-62
2020/12/22 04:26:10;;;;;;;0.63;0.30;;;14.90;99.90;;;;;;5069945;28;20043;-61
2020/12/22 04:28:35;;;;;;;0.63;0.40;;;14.90;99.90;;;;;;5068967;28;20383;-61
2020/12/22 04:31:01;;;;;;;1.67;0.50;;;14.80;99.90;;;;;;5068916;28;20024;-62
2020/12/22 04:33:26;;;;;;;0.40;0.30;;;15.00;99.90;;;;;;5070838;28;20036;-61
2020/12/22 04:35:52;;;;;;;0.40;0.25;;;15.10;99.90;;;;;;5068462;28;20040;-61
2020/12/22 04:38:17;;;;;;;0.55;0.20;;;15.00;99.90;;;;;;5068676;28;20029;-61
2020/12/22 04:40:43;;;;;;;1.08;0.43;;;14.90;99.90;;;;;;5068554;28;20032;-63
2020/12/22 04:43:09;;;;;;;1.55;0.35;;;15.00;99.90;;;;;;5068740;28;20099;-63
2020/12/22 04:45:34;;;;;;;0.25;0.17;;;15.00;99.90;;;;;;5068629;28;20063;-61
2020/12/22 04:48:00;;;;;;;1.35;0.40;;;15.00;99.90;;;;;;5069453;28;20064;-61
2020/12/22 04:50:26;;;;;;;0.85;0.77;;;15.00;99.90;;;;;;5069351;28;20037;-62
2020/12/22 04:52:52;;;;;;;0.88;0.30;;;15.00;99.90;;;;;;5069122;28;20035;-63
2020/12/22 04:55:20;;;;;;;0.35;0.30;;;14.90;99.90;;;;;;5068909;28;20108;-63
2020/12/22 04:57:50;;;;;;;0.73;0.30;;;15.00;99.90;;;;;;5068361;28;20095;-63
2020/12/22 05:00:17;;;;;;;0.75;0.30;;;15.00;99.90;;;;;;5068394;28;20027;-63
2020/12/22 05:02:43;;;;;;;1.48;0.20;;;15.30;99.90;;;;;;5076346;28;20069;-63
2020/12/22 05:05:10;;;;;;;0.60;0.30;;;15.20;99.90;;;;;;5080928;28;20023;-62
2020/12/22 05:07:37;;;;;;;0.70;0.70;;;15.20;99.90;;;;;;5077250;28;20035;-63
2020/12/22 05:10:23;;;;;;;0.20;0.20;;;15.20;99.90;;;;;;5085839;28;20058;-61
2020/12/22 05:12:49;;;;;;;1.77;0.38;;;15.20;99.90;;;;;;5074191;28;20036;-63
2020/12/22 05:15:14;;;;;;;1.52;0.30;;;15.20;99.90;;;;;;5092138;28;20086;-63
2020/12/22 05:17:44;;;;;;;2.38;0.40;;;15.10;99.90;;;;;;5078540;28;20032;-63
2020/12/22 05:20:13;;;;;;;0.55;0.40;;;15.10;99.90;;;;;;5072445;28;20781;-63
2020/12/22 05:22:39;;;;;;;2.75;0.40;;;15.10;99.90;;;;;;5091364;28;20538;-63
2020/12/22 05:25:05;;;;;;;2.38;0.40;;;15.10;99.90;;;;;;5072364;28;20031;-63
2020/12/22 05:27:32;;;;;;;2.22;0.50;;;15.10;99.90;;;;;;5072859;28;20032;-63
2020/12/22 05:30:04;;;;;;;0.63;0.30;;;15.10;99.90;;;;;;5076025;28;20391;-63
2020/12/22 05:32:33;;;;;;;0.75;0.30;;;15.20;99.90;;;;;;5078076;28;20039;-63
2020/12/22 05:34:59;;;;;;;2.10;0.80;;;15.20;99.90;;;;;;5079754;28;20421;-63
2020/12/22 05:37:25;;;;;;;2.28;0.50;;;15.20;99.90;;;;;;5072400;28;20479;-63
2020/12/22 05:39:51;;;;;;;2.92;0.52;;;15.20;99.90;;;;;;5071630;28;20065;-63
2020/12/22 05:42:18;;;;;;;2.30;0.35;;;15.10;99.90;;;;;;5071477;28;20028;-63
2020/12/22 05:44:51;;;;;;;0.98;0.63;;;15.10;99.90;;;;;;5070979;28;20051;-63
2020/12/22 05:47:20;;;;;;;1.35;0.40;;;15.10;99.90;;;;;;5086448;28;20048;-63
2020/12/22 05:49:56;;;;;;;0.47;0.30;;;15.00;99.90;;;;;;5091706;28;20044;-63
2020/12/22 05:52:29;;;;;;;0.52;0.30;;;15.10;99.90;;;;;;5091413;28;20401;-63
2020/12/22 05:54:55;;;;;;;1.58;0.30;;;15.00;99.90;;;;;;5072100;28;20036;-63
2020/12/22 05:57:29;;;;;;;0.63;0.30;;;15.10;99.90;;;;;;5071362;28;20028;-63
2020/12/22 05:59:56;;;;;;;2.08;0.50;;;15.10;99.90;;;;;;5072167;28;20033;-63
2020/12/22 06:02:30;;;;;;;0.40;0.20;;;15.10;99.90;;;;;;5087349;28;20055;-63
2020/12/22 06:05:01;;;;;;;0.40;0.17;;;15.10;99.90;;;;;;5091862;28;20506;-63
2020/12/22 06:07:28;;;;;;;1.98;0.22;;;15.10;99.90;;;;;;5091500;28;20032;-62
2020/12/22 06:09:55;;;;;;;0.70;0.20;;;15.10;99.90;;;;;;5090148;28;20044;-63
2020/12/22 06:12:21;;;;;;;1.00;0.20;;;15.10;99.90;;;;;;5084573;28;20039;-62
2020/12/22 06:14:52;;;;;;;0.38;0.30;;;15.00;99.90;;;;;;5073965;27;20099;-63
2020/12/22 06:17:19;;;;;;;1.15;0.30;;;15.00;99.90;;;;;;5071232;28;20017;-63
2020/12/22 06:19:45;;;;;;;0.75;0.20;;;15.00;99.90;;;;;;5070999;28;20357;-63
2020/12/22 06:22:13;;;;;;;5.05;0.30;;;15.00;99.90;;;;;;5090024;28;20103;-63
2020/12/22 06:24:40;;;;;;;1.65;0.40;;;15.00;99.90;;;;;;5085658;28;20024;-63
2020/12/22 06:27:08;;;;;;;0.30;0.30;;;15.00;99.90;;;;;;5081727;28;20024;-63
2020/12/22 06:29:35;;;;;;;0.20;0.20;;;15.10;99.90;;;;;;5077759;28;20028;-62
2020/12/22 06:32:30;;;;;;;0.20;0.20;;;15.20;99.90;;;;;;5075100;28;20045;-62
2020/12/22 06:35:27;;;;;;;0.10;0.10;;;15.10;99.90;;;;;;5079455;28;20044;-63
2020/12/22 06:37:53;;;;;;;0.25;0.20;;;15.00;99.90;;;;;;5089956;28;20059;-62
2020/12/22 06:40:19;;;;;;;0.25;0.25;;;15.00;99.90;;;;;;5084730;28;20680;-63
2020/12/22 06:42:48;;;;;;;0.75;0.20;;;15.00;99.90;;;;;;5070484;28;20070;-63
2020/12/22 06:45:36;;;;;;;0.43;0.20;;;15.00;99.90;;;;;;5078440;28;20063;-63
2020/12/22 06:48:01;;;;;;;0.30;0.30;;;15.00;99.90;;;;;;5077241;28;20040;-62
2020/12/22 06:50:40;;;;;;;1.90;0.20;;;15.00;99.90;;;;;;5081828;28;20020;-61
2020/12/22 06:53:27;;;;;;;0.28;0.20;;;15.00;99.90;;;;;;5070237;28;20112;-63
2020/12/22 06:55:54;;;;;;;0.25;0.25;;;15.00;99.90;;;;;;5085753;28;20394;-63
2020/12/22 06:58:38;;;;;;;0.45;0.20;;;15.00;99.90;;;;;;5090973;28;20028;-63
2020/12/22 07:01:25;;;;;;;0.50;0.17;;;15.10;99.90;;;;;;5088026;28;20020;-62
2020/12/22 07:03:52;;;;;;;0.22;0.20;;;15.20;99.90;;;;;;5084915;28;20613;-62
2020/12/22 07:06:48;;;;;;;1.52;0.30;;;15.20;99.90;;;;;;5089204;28;20032;-62
2020/12/22 07:09:22;;;;;;;0.85;0.30;;;15.20;99.90;;;;;;5086782;28;20110;-63
2020/12/22 07:11:50;;;;;;;2.67;0.98;;;15.20;99.90;;;;;;5090366;28;20032;-63
2020/12/22 07:14:17;;;;;;;1.42;0.60;;;15.20;99.90;;;;;;5089698;28;20090;-64
2020/12/22 07:16:55;;;;;;;0.80;0.47;;;15.20;99.90;;;;;;5089689;28;20406;-64
2020/12/22 07:19:29;;;;;;;0.95;0.30;;;15.20;99.90;;;;;;5090608;28;20809;-63
2020/12/22 07:21:59;;;;;;;6.32;0.40;;;15.10;99.90;;;;;;5090118;28;20031;-63
2020/12/22 07:24:26;;;;;;;0.98;0.30;;;15.20;99.90;;;;;;5089476;28;20051;-63
2020/12/22 07:26:52;;;;;;;1.02;0.40;;;15.20;99.90;;;;;;5087811;28;20391;-63
2020/12/22 07:29:18;;;;;;;0.55;0.30;;;15.10;99.90;;;;;;5079963;28;20399;-63
2020/12/22 07:31:45;;;;;;;2.95;0.75;;;15.10;99.90;;;;;;5083352;28;20028;-63
2020/12/22 07:34:10;;;;;;;0.55;0.38;;;15.20;99.90;;;;;;5088709;28;20481;-63
2020/12/22 07:36:37;;;;;;;1.95;0.22;;;15.10;99.90;;;;;;5084570;28;20028;-62
2020/12/22 07:39:21;;;;;;;1.73;0.40;;;15.20;99.90;;;;;;5070316;28;20021;-61
2020/12/22 07:41:47;;;;;;;;;;;15.10;99.90;;;;;;5088521;28;20020;-61
2020/12/22 07:44:21;;;;;;;1.35;0.50;;;15.10;99.90;;;;;;5084588;28;19912;-63
2020/12/22 07:46:48;;;;;;;1.43;0.40;;;15.10;99.90;;;;;;5089224;28;20501;-63
2020/12/22 07:49:16;;;;;;;1.38;0.43;;;15.10;99.90;;;;;;5076847;28;20391;-62
2020/12/22 07:51:44;;;;;;;1.70;0.40;;;15.00;99.90;;;;;;5081634;28;20059;-63
2020/12/22 07:54:10;;;;;;;0.40;0.40;;;15.00;99.90;;;;;;5068454;28;20023;-65
2020/12/22 07:56:41;;;;;;;0.75;0.50;;;15.00;99.90;;;;;;5072649;28;20419;-63
2020/12/22 07:59:15;;;;;;;1.85;1.10;;;15.00;99.90;;;;;;5076401;28;20433;-64
2020/12/22 08:01:43;;;;;;;4.95;0.55;;;15.00;99.90;;;;;;5086632;28;20364;-65
2020/12/22 08:04:15;;;;;;;0.68;0.30;;;15.00;99.90;;;;;;5074271;28;20479;-64
2020/12/22 08:06:51;;;;;;;1.08;0.30;;;15.00;99.90;;;;;;5074288;28;20039;-61
2020/12/22 08:09:21;;;;;;;3.40;0.20;;;15.00;99.90;;;;;;5071813;28;20023;-64
2020/12/22 08:11:47;;;;;;;1.60;0.52;;;15.00;99.90;;;;;;5073967;28;20142;-64
2020/12/22 08:14:12;;;;;;;0.28;0.28;;;15.00;99.90;;;;;;5085183;28;20059;-63
2020/12/22 08:16:38;;;;;;;1.35;0.30;;;15.00;99.90;;;;;;5079604;28;20031;-63
2020/12/22 08:19:04;;;;;;;2.17;0.55;;;15.00;99.90;;;;;;5070904;28;20028;-62
2020/12/22 08:21:31;;;;;;;2.03;0.47;;;15.00;99.90;;;;;;5068664;28;20541;-63
2020/12/22 08:23:57;;;;;;;0.95;0.45;;;15.10;99.90;;;;;;5076113;28;20028;-61
2020/12/22 08:26:23;;;;;;;2.13;0.35;;;15.00;99.90;;;;;;5083318;28;20079;-63
2020/12/22 08:28:56;;;;;;;0.50;0.38;;;15.00;99.90;;;;;;5068683;28;20036;-66
2020/12/22 08:31:24;;;;;;;5.80;0.50;;;15.00;99.90;;;;;;5081584;28;20073;-62
2020/12/22 08:33:59;;;;;;;1.05;0.50;;;15.00;99.90;;;;;;5078836;28;20036;-62
2020/12/22 08:36:29;;;;;;;1.85;0.40;;;15.00;99.90;;;;;;5084699;28;20114;-63
2020/12/22 08:39:16;;;;;;;0.32;0.30;;;15.00;99.90;;;;;;5075854;28;20062;-62
2020/12/22 08:41:44;;;;;;;0.50;0.30;;;15.10;99.90;;;;;;5079979;28;20025;-63
2020/12/22 08:44:11;;;;;;;0.40;0.35;;;15.10;99.90;;;;;;5070273;28;20028;-64
2020/12/22 08:46:38;;;;;;;2.03;0.40;;;15.10;99.90;;;;;;5069881;28;20580;-62
2020/12/22 08:49:17;;;;;;;1.98;0.50;;;15.00;99.90;;;;;;5072715;28;20028;-59
2020/12/22 08:51:44;;;;;;;1.40;0.55;;;15.00;99.90;;;;;;5071311;28;20084;-62
2020/12/22 08:54:10;;;;;;;0.68;0.50;;;15.00;99.90;;;;;;5069183;28;20043;-64
2020/12/22 08:56:37;;;;;;;1.75;0.50;;;15.10;99.90;;;;;;5070010;28;20020;-66
2020/12/22 08:59:10;;;;;;;2.55;0.45;;;15.10;99.90;;;;;;5069770;28;20031;-63
2020/12/22 09:01:40;;;;;;;2.28;0.55;;;15.10;99.90;;;;;;5076786;28;20028;-63
2020/12/22 09:04:07;;;;;;;2.75;0.45;;;15.10;99.90;;;;;;5072548;28;20429;-63
2020/12/22 09:06:43;;;;;;;1.48;0.50;;;15.10;99.90;;;;;;5069447;28;20112;-62
2020/12/22 09:09:17;;;;;;;1.88;0.30;;;15.20;99.90;;;;;;5071251;28;20700;-66
2020/12/22 09:11:45;;;;;;;1.83;0.40;;;15.20;99.90;;;;;;5070346;28;20104;-64
2020/12/22 09:14:16;;;;;;;0.80;0.50;;;15.10;99.90;;;;;;5068791;28;20047;-62
2020/12/22 09:16:46;;;;;;;2.92;0.40;;;15.10;99.90;;;;;;5078848;28;20483;-65
2020/12/22 09:19:11;;;;;;;2.25;0.80;;;15.00;99.90;;;;;;5072366;28;20093;-64
2020/12/22 09:21:38;;;;;;;2.78;0.70;;;14.90;99.90;;;;;;5077657;28;20499;-62
2020/12/22 09:24:04;;;;;;;0.80;0.35;;;14.90;99.90;;;;;;5075939;28;20028;-63
2020/12/22 09:26:30;;;;;;;1.63;0.40;;;14.80;99.90;;;;;;5074699;28;20058;-60
2020/12/22 09:28:55;;;;;;;0.43;0.30;;;14.80;99.90;;;;;;5083192;28;20040;-61
2020/12/22 09:31:27;;;;;;;0.43;0.43;;;14.80;99.90;;;;;;5076109;28;20024;-63
2020/12/22 09:33:53;;;;;;;2.30;0.50;;;14.80;99.90;;;;;;5073913;28;20037;-64
2020/12/22 09:36:19;;;;;;;0.82;0.30;;;14.80;99.90;;;;;;5076650;28;20510;-65
2020/12/22 09:38:45;;;;;;;1.63;0.40;;;14.80;99.90;;;;;;5078056;28;20032;-62
2020/12/22 09:41:10;;;;;;;1.60;0.50;;;14.80;99.90;;;;;;5075606;28;20044;-65
2020/12/22 09:43:36;;;;;;;2.97;0.57;;;14.80;99.90;;;;;;5078527;28;20523;-63
2020/12/22 09:46:02;;;;;;;2.95;0.50;;;14.90;99.90;;;;;;5079181;28;20044;-65
2020/12/22 09:48:28;;;;;;;1.65;0.43;;;14.90;99.90;;;;;;5082103;28;20028;-65
2020/12/22 09:50:53;;;;;;;0.85;0.50;;;15.00;99.90;;;;;;5075089;28;20059;-63
2020/12/22 09:53:19;;;;;;;1.52;0.50;;;15.10;99.90;;;;;;5079898;28;20056;-65
2020/12/22 09:55:45;;;;;;;0.85;0.30;;;15.20;99.90;;;;;;5084293;28;20080;-65
2020/12/22 09:58:10;;;;;;;1.92;0.40;;;15.20;99.90;;;;;;5080744;28;20111;-65
2020/12/22 10:00:40;;;;;;;0.85;0.50;;;15.30;99.90;;;;;;5085668;28;20447;-66
2020/12/22 10:03:09;;;;;;;1.08;0.50;;;15.30;99.90;;;;;;5085200;28;20028;-64
2020/12/22 10:05:35;;;;;;;1.80;0.50;;;15.30;99.90;;;;;;5086144;28;20027;-64
2020/12/22 10:08:00;;;;;;;0.98;0.60;;;15.40;99.90;;;;;;5090858;28;20053;-63
2020/12/22 10:10:26;;;;;;;1.40;0.47;;;15.40;99.90;;;;;;5090981;28;20088;-61
2020/12/22 10:12:51;;;;;;;3.55;0.70;;;15.40;99.90;;;;;;5076305;28;20033;-61
2020/12/22 10:15:17;;;;;;;2.47;0.63;;;15.40;99.90;;;;;;5070861;28;20021;-60
2020/12/22 10:17:42;;;;;;;0.77;0.60;;;15.40;99.90;;;;;;5075471;28;20025;-60
2020/12/22 10:20:08;;;;;;;2.90;1.02;;;15.40;99.90;;;;;;5080015;28;20482;-60
2020/12/22 10:22:33;;;;;;;3.55;0.80;;;15.40;99.90;;;;;;5091807;28;20043;-59
2020/12/22 10:24:59;;;;;;;1.90;0.80;;;15.40;99.90;;;;;;5097149;28;20020;-60
2020/12/22 10:27:24;;;;;;;4.30;0.95;;;15.50;99.90;;;;;;5072697;28;20031;-60
2020/12/22 10:29:50;;;;;;;5.18;1.23;;;15.60;99.90;;;;;;5080251;28;20035;-61
2020/12/22 10:32:16;;;;;;;3.13;1.50;;;15.60;99.90;;;;;;5082416;28;20123;-61
2020/12/22 10:34:41;;;;;;;5.05;0.88;;;15.60;99.90;;;;;;5077208;28;20020;-61
2020/12/22 10:37:07;;;;;;;2.90;1.02;;;15.60;99.90;;;;;;5102627;28;20483;-61
2020/12/22 10:39:34;;;;;;;9.55;1.55;;;15.60;99.90;;;;;;5085462;28;20020;-60
2020/12/22 10:41:59;;;;;;;4.07;1.05;;;15.60;99.90;;;;;;5056913;28;20024;-61
2020/12/22 10:44:25;;;;;;;5.45;1.42;;;15.50;99.90;;;;;;5090048;28;20413;-60
2020/12/22 10:46:50;;;;;;;3.28;0.73;;;15.60;99.90;;;;;;5085946;28;20036;-61
2020/12/22 10:49:17;;;;;;;8.75;1.42;;;15.50;99.90;;;;;;5071322;28;20092;-61
2020/12/22 10:51:42;;;;;;;3.75;0.98;;;15.50;99.90;;;;;;5087236;28;20781;-60
2020/12/22 10:54:08;;;;;;;4.53;0.82;;;15.50;99.90;;;;;;5080802;28;20024;-60
2020/12/22 10:56:33;;;;;;;1.65;0.82;;;15.50;99.90;;;;;;5088755;28;20478;-61
2020/12/22 10:59:00;;;;;;;4.13;0.70;;;15.50;99.90;;;;;;5072563;28;20035;-61
2020/12/22 11:01:26;;;;;;;3.80;1.00;;;15.50;99.90;;;;;;5074714;28;20032;-61
2020/12/22 11:03:51;;;;;;;3.35;0.90;;;15.50;99.90;;;;;;5079791;28;20063;-60
2020/12/22 11:06:29;;;;;;;2.95;0.98;;;15.50;99.90;;;;;;5077743;28;20502;-61
2020/12/22 11:08:55;;;;;;;3.05;1.00;;;15.50;99.90;;;;;;5078481;28;20510;-60
2020/12/22 11:11:21;;;;;;;2.55;0.90;;;15.50;99.90;;;;;;5085524;28;20036;-60
2020/12/22 11:13:46;;;;;;;3.80;1.08;;;15.60;99.90;;;;;;5067629;28;20064;-60
2020/12/22 11:16:12;;;;;;;1.65;0.70;;;15.60;99.90;;;;;;5073443;28;20036;-61
2020/12/22 11:18:41;;;;;;;4.18;1.50;;;15.60;99.90;;;;;;5070361;28;20021;-60
2020/12/22 11:21:11;;;;;;;2.38;0.93;;;15.60;99.90;;;;;;5086597;28;20057;-61
2020/12/22 11:23:36;;;;;;;3.60;0.90;;;15.70;99.90;;;;;;5089676;28;20090;-61
2020/12/22 11:26:03;;;;;;;2.10;1.08;;;15.70;99.90;;;;;;5074590;28;20113;-61
2020/12/22 11:28:28;;;;;;;5.85;1.10;;;15.80;99.90;;;;;;5071077;28;20075;-60
2020/12/22 11:30:54;;;;;;;3.42;1.30;;;15.80;99.90;;;;;;5089101;28;20063;-60
2020/12/22 11:33:19;;;;;;;6.40;1.00;;;15.70;99.90;;;;;;5082204;28;20047;-60
2020/12/22 11:35:45;;;;;;;5.60;1.00;;;15.70;99.90;;;;;;5079461;28;20048;-60
2020/12/22 11:38:10;;;;;;;5.80;1.33;;;15.60;99.90;;;;;;5077027;28;20036;-60
2020/12/22 11:40:36;;;;;;;11.48;1.35;;;15.50;99.90;;;;;;5072005;28;20028;-61
2020/12/22 11:43:02;;;;;;;5.03;1.10;;;15.50;99.90;;;;;;5066336;28;20029;-62
2020/12/22 11:45:27;;;;;;;4.75;1.40;;;15.40;99.90;;;;;;5076976;28;20031;-60
2020/12/22 11:47:53;;;;;;;5.30;1.10;;;15.40;99.90;;;;;;5077504;28;20257;-61
2020/12/22 11:50:19;;;;;;;11.15;2.67;;;15.40;99.90;;;;;;5080045;28;20490;-60
2020/12/22 11:52:44;;;;;;;1.48;0.85;;;15.40;99.90;;;;;;5085594;28;20043;-65
2020/12/22 11:55:10;;;;;;;2.40;1.00;;;15.30;99.90;;;;;;5079757;28;20028;-66
2020/12/22 11:57:36;;;;;;;3.05;1.15;;;15.20;99.90;;;;;;5087364;28;20205;-66
2020/12/22 12:00:04;;;;;;;2.55;1.10;;;15.30;99.90;;;;;;5073881;28;20113;-64
2020/12/22 12:02:30;;;;;;;1.77;0.90;;;15.40;99.90;;;;;;5067999;28;20021;-65
2020/12/22 12:04:55;;;;;;;2.67;1.13;;;15.40;99.90;;;;;;5065500;28;20055;-66
2020/12/22 12:07:21;;;;;;;4.78;1.02;;;15.40;99.90;;;;;;5077819;28;20039;-65
2020/12/22 12:09:46;;;;;;;4.53;1.05;;;15.40;99.90;;;;;;5071782;28;20055;-66
2020/12/22 12:12:12;;;;;;;1.52;0.80;;;15.30;99.90;;;;;;5074863;28;20028;-66
2020/12/22 12:14:37;;;;;;;2.90;1.02;;;15.30;99.90;;;;;;5081393;28;20035;-64
2020/12/22 12:17:03;;;;;;;4.55;1.40;;;15.20;99.90;;;;;;5078101;28;20036;-63
2020/12/22 12:19:32;;;;;;;3.58;1.08;;;15.20;99.90;;;;;;5087836;28;20032;-64
2020/12/22 12:21:58;;;;;;;5.45;1.15;;;15.10;99.90;;;;;;5082141;28;20043;-66
2020/12/22 12:24:24;;;;;;;4.78;1.33;;;15.00;99.90;;;;;;5065475;28;20443;-64
2020/12/22 12:26:49;;;;;;;2.78;1.48;;;15.00;99.90;;;;;;5065823;28;20032;-65
2020/12/22 12:29:15;;;;;;;2.58;1.48;;;15.00;99.90;;;;;;5065691;28;20873;-64
2020/12/22 12:31:41;;;;;;;2.58;1.45;;;14.90;99.90;;;;;;5071423;28;20036;-64
2020/12/22 12:34:07;;;;;;;2.15;0.93;;;14.80;99.90;;;;;;5068103;28;20040;-63
2020/12/22 12:36:32;;;;;;;4.10;1.17;;;14.80;99.90;;;;;;5072271;28;20134;-64
2020/12/22 12:38:58;;;;;;;3.05;1.15;;;14.80;99.90;;;;;;5065534;28;20032;-66
2020/12/22 12:41:25;;;;;;;1.70;1.13;;;14.70;99.90;;;;;;5079468;28;20051;-64
2020/12/22 12:43:50;;;;;;;4.70;1.35;;;14.70;99.90;;;;;;5086071;28;20100;-64
2020/12/22 12:46:16;;;;;;;1.40;1.00;;;14.70;99.90;;;;;;5073238;28;20617;-64
2020/12/22 12:48:42;;;;;;;4.43;0.82;;;14.60;99.90;;;;;;5075189;28;20025;-64